Time;durP1;ratioP1;P1;durP2;ratioP2;P2;SDS_P1;SDS_P2;PMS_P1;PMS_P2;Temp;Humidity;BMP_temperature;BMP_pressure;BME280_temperature;BME280_humidity;BME280_pressure;Samples;Min_cycle;Max_cycle;Signal;HPM_P1;HPM_P2
2021/07/12 00:00:32;;;;;;;1999.90;999.90;;;7.80;99.90;;;;;;5052810;28;20172;-40
2021/07/12 00:03:00;;;;;;;1999.90;999.90;;;7.80;99.90;;;;;;5053362;28;20536;-40
2021/07/12 00:05:29;;;;;;;1999.90;999.90;;;7.80;99.90;;;;;;5053344;28;20161;-40
2021/07/12 00:07:56;;;;;;;1999.90;999.90;;;7.80;99.90;;;;;;5053151;28;20734;-40
2021/07/12 00:10:25;;;;;;;1999.90;999.90;;;7.70;99.90;;;;;;5053324;28;20647;-40
2021/07/12 00:12:53;;;;;;;1999.90;999.90;;;7.80;99.90;;;;;;5052924;28;20235;-40
2021/07/12 00:15:22;;;;;;;1999.90;999.90;;;7.80;99.90;;;;;;5053042;28;20227;-40
2021/07/12 00:17:49;;;;;;;1999.90;999.90;;;7.70;99.90;;;;;;5053203;28;20172;-43
2021/07/12 00:20:17;;;;;;;1999.90;999.90;;;7.70;99.90;;;;;;5053120;28;20247;-42
2021/07/12 00:22:45;;;;;;;1999.90;999.90;;;7.60;99.90;;;;;;5035398;28;20674;-42
2021/07/12 00:25:14;;;;;;;1999.90;999.90;;;7.70;99.90;;;;;;5053011;28;20208;-42
2021/07/12 00:27:42;;;;;;;1999.90;999.90;;;7.70;99.90;;;;;;5053093;28;20288;-42
2021/07/12 00:30:12;;;;;;;1999.90;999.90;;;7.70;99.90;;;;;;5053123;28;20165;-42
2021/07/12 00:32:39;;;;;;;1999.90;999.90;;;7.50;99.90;;;;;;5053490;28;20161;-42
2021/07/12 00:35:09;;;;;;;1999.90;999.90;;;7.50;99.90;;;;;;5052944;28;20252;-42
2021/07/12 00:37:36;;;;;;;1999.90;999.90;;;7.40;99.90;;;;;;5052870;28;20200;-45
2021/07/12 00:40:05;;;;;;;1999.90;999.90;;;7.50;99.90;;;;;;5052933;28;20245;-42
2021/07/12 00:42:32;;;;;;;1999.90;999.90;;;7.50;99.90;;;;;;5052778;28;20165;-42
2021/07/12 00:44:59;;;;;;;1999.90;999.90;;;7.50;99.90;;;;;;5052802;28;20197;-42
2021/07/12 00:47:25;;;;;;;1999.90;999.90;;;7.50;99.90;;;;;;5052670;28;20199;-43
2021/07/12 00:49:52;;;;;;;1999.90;999.90;;;7.60;99.90;;;;;;5052692;28;20315;-42
2021/07/12 00:52:19;;;;;;;1999.90;999.90;;;7.60;99.90;;;;;;5052771;28;20165;-42
2021/07/12 00:54:46;;;;;;;1999.90;999.90;;;7.60;99.90;;;;;;5052695;28;20168;-41
2021/07/12 00:57:13;;;;;;;1999.90;999.90;;;7.70;99.90;;;;;;5052736;28;20179;-42
2021/07/12 00:59:40;;;;;;;1999.90;999.90;;;7.80;99.90;;;;;;5052808;28;20200;-42
2021/07/12 01:02:07;;;;;;;1999.90;999.90;;;7.90;99.90;;;;;;5052651;28;20172;-42
2021/07/12 01:04:35;;;;;;;1999.90;999.90;;;7.90;99.90;;;;;;5052643;28;20650;-42
2021/07/12 01:07:02;;;;;;;1999.90;999.90;;;8.00;99.90;;;;;;5052471;28;20200;-42
2021/07/12 01:09:29;;;;;;;1999.90;999.90;;;8.10;99.90;;;;;;5052576;28;20176;-42
2021/07/12 01:12:09;;;;;;;1999.90;999.90;;;8.20;99.90;;;;;;5053431;28;20671;-40
2021/07/12 01:15:22;;;;;;;1999.90;999.90;;;8.20;99.90;;;;;;5056602;28;20175;-40
2021/07/12 01:18:22;;;;;;;1999.90;999.90;;;8.30;99.90;;;;;;5056219;28;20181;-40
2021/07/12 01:21:08;;;;;;;1999.90;999.90;;;8.30;99.90;;;;;;5056610;28;20188;-40
2021/07/12 01:23:53;;;;;;;1999.90;999.90;;;8.30;99.90;;;;;;5056492;28;20187;-40
2021/07/12 01:26:50;;;;;;;1999.90;999.90;;;8.30;99.90;;;;;;5056331;28;20153;-40
2021/07/12 01:29:39;;;;;;;1999.90;999.90;;;8.30;99.90;;;;;;5056346;28;20209;-40
2021/07/12 01:32:29;;;;;;;1999.90;999.90;;;8.30;99.90;;;;;;5045650;28;20557;-40
2021/07/12 01:35:14;;;;;;;1999.90;999.90;;;8.20;99.90;;;;;;5056131;28;20228;-40
2021/07/12 01:38:14;;;;;;;1999.90;999.90;;;8.20;99.90;;;;;;5056122;28;20173;-40
2021/07/12 01:41:30;;;;;;;1999.90;999.90;;;8.20;99.90;;;;;;5056009;28;20169;-42
2021/07/12 01:44:26;;;;;;;1999.90;999.90;;;8.10;99.90;;;;;;4967324;28;20191;-40
2021/07/12 01:47:05;;;;;;;1999.90;999.90;;;8.00;99.90;;;;;;5055933;28;20665;-40
2021/07/12 01:50:08;;;;;;;1999.90;999.90;;;7.90;99.90;;;;;;5055997;28;20192;-40
2021/07/12 01:52:54;;;;;;;1999.90;999.90;;;7.90;99.90;;;;;;5055944;28;20518;-40
2021/07/12 01:55:21;;;;;;;1999.90;999.90;;;7.90;99.90;;;;;;5054621;28;20192;-40
2021/07/12 01:58:38;;;;;;;1999.90;999.90;;;7.80;99.90;;;;;;5055909;28;20175;-40
2021/07/12 02:01:10;;;;;;;1999.90;999.90;;;7.70;99.90;;;;;;4994320;28;20290;-40
2021/07/12 02:03:37;;;;;;;1999.90;999.90;;;7.70;99.90;;;;;;5045530;28;20192;-40
2021/07/12 02:06:08;;;;;;;1999.90;999.90;;;7.70;99.90;;;;;;5055646;28;20168;-40
2021/07/12 02:08:47;;;;;;;1999.90;999.90;;;7.70;99.90;;;;;;5055528;28;20612;-39
2021/07/12 02:11:18;;;;;;;1999.90;999.90;;;7.70;99.90;;;;;;5055494;28;20168;-40
2021/07/12 02:13:49;;;;;;;1999.90;999.90;;;7.80;99.90;;;;;;5055552;28;20751;-40
2021/07/12 02:16:17;;;;;;;1999.90;999.90;;;7.90;99.90;;;;;;5055639;28;20210;-40
2021/07/12 02:18:46;;;;;;;1999.90;999.90;;;7.90;99.90;;;;;;5055455;28;20659;-40
2021/07/12 02:21:15;;;;;;;1999.90;999.90;;;8.00;99.90;;;;;;5055340;28;20203;-41
2021/07/12 02:23:43;;;;;;;1999.90;999.90;;;8.10;99.90;;;;;;5054421;28;20176;-40
2021/07/12 02:26:12;;;;;;;1999.90;999.90;;;8.10;99.90;;;;;;5055206;28;20771;-40
2021/07/12 02:28:44;;;;;;;1999.90;999.90;;;8.30;99.90;;;;;;5054981;28;20687;-40
2021/07/12 02:31:15;;;;;;;1999.90;999.90;;;8.30;99.90;;;;;;5055152;28;20223;-40
2021/07/12 02:33:43;;;;;;;1999.90;999.90;;;8.30;99.90;;;;;;5055100;28;20523;-40
2021/07/12 02:36:11;;;;;;;1999.90;999.90;;;8.40;99.90;;;;;;5054988;28;20691;-40
2021/07/12 02:38:39;;;;;;;1999.90;999.90;;;8.50;99.90;;;;;;5055036;28;20169;-40
2021/07/12 02:41:06;;;;;;;1999.90;999.90;;;8.50;99.90;;;;;;5054982;28;20176;-40
2021/07/12 02:43:35;;;;;;;1999.90;999.90;;;8.50;99.90;;;;;;5054903;28;20181;-40
2021/07/12 02:46:04;;;;;;;1999.90;999.90;;;8.50;99.90;;;;;;5054906;28;20161;-43
2021/07/12 02:48:31;;;;;;;1999.90;999.90;;;8.60;99.90;;;;;;5054762;28;20232;-40
2021/07/12 02:51:00;;;;;;;1999.90;999.90;;;8.60;99.90;;;;;;5054757;28;20169;-40
2021/07/12 02:53:33;;;;;;;1999.90;999.90;;;8.60;99.90;;;;;;5055225;28;20524;-40
2021/07/12 02:56:00;;;;;;;1999.90;999.90;;;8.80;99.90;;;;;;5054706;28;20223;-40
2021/07/12 02:58:27;;;;;;;1999.90;999.90;;;8.90;99.90;;;;;;5054696;28;20170;-42
2021/07/12 03:00:54;;;;;;;1999.90;999.90;;;8.80;99.90;;;;;;5054575;28;20189;-40
2021/07/12 03:03:21;;;;;;;1999.90;999.90;;;8.90;99.90;;;;;;5054677;28;20181;-40
2021/07/12 03:05:54;;;;;;;1999.90;999.90;;;8.90;99.90;;;;;;5054494;28;20184;-40
2021/07/12 03:08:32;;;;;;;1999.90;999.90;;;9.00;99.90;;;;;;5054589;28;20198;-40
2021/07/12 03:11:00;;;;;;;1999.90;999.90;;;9.10;99.90;;;;;;5054499;28;20154;-40
2021/07/12 03:13:48;;;;;;;1999.90;999.90;;;9.30;99.90;;;;;;5054179;28;20580;-40
2021/07/12 03:16:15;;;;;;;1999.90;999.90;;;9.40;99.90;;;;;;5054526;28;20188;-41
2021/07/12 03:18:50;;;;;;;1999.90;999.90;;;9.40;99.90;;;;;;5054288;28;20161;-41
2021/07/12 03:21:19;;;;;;;1999.90;999.90;;;9.30;99.90;;;;;;5054150;28;20157;-41
2021/07/12 03:23:50;;;;;;;1999.90;999.90;;;9.30;99.90;;;;;;5054234;28;20211;-43
2021/07/12 03:26:20;;;;;;;1999.90;999.90;;;9.30;99.90;;;;;;5054031;28;20173;-40
2021/07/12 03:28:51;;;;;;;1999.90;999.90;;;9.30;99.90;;;;;;5053934;28;20232;-41
2021/07/12 03:31:23;;;;;;;1999.90;999.90;;;9.30;99.90;;;;;;5054078;28;20158;-41
2021/07/12 03:33:53;;;;;;;1999.90;999.90;;;9.30;99.90;;;;;;5054054;28;20236;-40
2021/07/12 03:36:21;;;;;;;1999.90;999.90;;;9.50;99.90;;;;;;5053938;28;20189;-40
2021/07/12 03:38:49;;;;;;;1999.90;999.90;;;9.60;99.90;;;;;;5053796;28;20558;-40
2021/07/12 03:41:16;;;;;;;1999.90;999.90;;;9.60;99.90;;;;;;5053833;28;20255;-41
2021/07/12 03:43:43;;;;;;;1999.90;999.90;;;9.70;99.90;;;;;;5053635;28;20162;-41
2021/07/12 03:46:10;;;;;;;1999.90;999.90;;;9.70;99.90;;;;;;5053731;28;20161;-40
2021/07/12 03:48:45;;;;;;;1999.90;999.90;;;9.60;99.90;;;;;;5053588;28;20663;-41
2021/07/12 03:51:27;;;;;;;1999.90;999.90;;;9.60;99.90;;;;;;5053706;28;20515;-44
2021/07/12 03:53:54;;;;;;;1999.90;999.90;;;9.60;99.90;;;;;;5053969;28;20620;-45
2021/07/12 03:56:22;;;;;;;1999.90;999.90;;;9.50;99.90;;;;;;5053521;28;20643;-42
2021/07/12 03:58:49;;;;;;;1999.90;999.90;;;9.40;99.90;;;;;;5053302;28;20240;-42
2021/07/12 04:01:24;;;;;;;1999.90;999.90;;;9.40;99.90;;;;;;5053480;28;20170;-44
2021/07/12 04:03:54;;;;;;;1999.90;999.90;;;9.30;99.90;;;;;;5053389;28;20562;-42
2021/07/12 04:06:22;;;;;;;1999.90;999.90;;;9.30;99.90;;;;;;5053340;28;20172;-43
2021/07/12 04:08:48;;;;;;;1999.90;999.90;;;9.40;99.90;;;;;;5053215;28;20200;-43
2021/07/12 04:11:17;;;;;;;1999.90;999.90;;;9.30;99.90;;;;;;5053141;28;20189;-42
2021/07/12 04:13:44;;;;;;;1999.90;999.90;;;9.30;99.90;;;;;;5053141;28;20307;-42
2021/07/12 04:16:11;;;;;;;1999.90;999.90;;;9.30;99.90;;;;;;5053223;28;20572;-41
2021/07/12 04:18:37;;;;;;;1999.90;999.90;;;9.20;99.90;;;;;;5051932;28;20177;-40
2021/07/12 04:21:04;;;;;;;1999.90;999.90;;;9.20;99.90;;;;;;5053164;28;20169;-41
2021/07/12 04:23:31;;;;;;;1999.90;999.90;;;9.20;99.90;;;;;;5053083;28;20173;-41
2021/07/12 04:25:58;;;;;;;1999.90;999.90;;;9.10;99.90;;;;;;5053196;28;20173;-42
2021/07/12 04:28:25;;;;;;;1999.90;999.90;;;9.10;99.90;;;;;;5052679;28;20267;-40
2021/07/12 04:30:52;;;;;;;1999.90;999.90;;;9.20;99.90;;;;;;5052748;28;20165;-40
2021/07/12 04:33:19;;;;;;;1999.90;999.90;;;9.10;99.90;;;;;;5052600;28;20171;-43
2021/07/12 04:35:45;;;;;;;1999.90;999.90;;;9.10;99.90;;;;;;5052690;28;20165;-43
2021/07/12 04:38:12;;;;;;;1999.90;999.90;;;9.10;99.90;;;;;;5052462;28;20227;-45
2021/07/12 04:40:39;;;;;;;1999.90;999.90;;;9.10;99.90;;;;;;5052415;28;20219;-42
2021/07/12 04:43:07;;;;;;;1999.90;999.90;;;9.00;99.90;;;;;;5052451;28;20173;-43
2021/07/12 04:45:34;;;;;;;1999.90;999.90;;;9.00;99.90;;;;;;5052496;28;20259;-42
2021/07/12 04:48:01;;;;;;;1999.90;999.90;;;9.00;99.90;;;;;;5052001;28;20679;-42
2021/07/12 04:50:28;;;;;;;1999.90;999.90;;;9.00;99.90;;;;;;5052613;28;20219;-42
2021/07/12 04:52:55;;;;;;;1999.90;999.90;;;9.00;99.90;;;;;;5052549;28;20208;-43
2021/07/12 04:55:21;;;;;;;1999.90;999.90;;;9.10;99.90;;;;;;5052590;28;20172;-42
2021/07/12 04:57:48;;;;;;;1999.90;999.90;;;9.20;99.90;;;;;;5052523;28;20169;-44
2021/07/12 05:00:16;;;;;;;1999.90;999.90;;;9.40;99.90;;;;;;5052466;28;20172;-43
2021/07/12 05:02:42;;;;;;;1999.90;999.90;;;9.50;99.90;;;;;;5052393;28;20169;-42
2021/07/12 05:05:11;;;;;;;1999.90;999.90;;;9.60;99.90;;;;;;5052341;28;20168;-43
2021/07/12 05:07:39;;;;;;;1999.90;999.90;;;9.60;99.90;;;;;;5052600;28;20211;-42
2021/07/12 05:10:07;;;;;;;1999.90;999.90;;;9.60;99.90;;;;;;5052541;28;20173;-42
2021/07/12 05:12:34;;;;;;;1999.90;999.90;;;9.60;99.90;;;;;;5052019;28;20229;-42
2021/07/12 05:15:02;;;;;;;1999.90;999.90;;;9.70;99.90;;;;;;5035005;28;20165;-43
2021/07/12 05:17:28;;;;;;;1999.90;999.90;;;9.70;99.90;;;;;;5052444;28;20169;-44
2021/07/12 05:19:55;;;;;;;1999.90;999.90;;;9.70;99.90;;;;;;5052207;28;20215;-44
2021/07/12 05:22:25;;;;;;;1999.90;999.90;;;9.80;99.90;;;;;;5052186;28;20165;-42
2021/07/12 05:24:54;;;;;;;1999.90;999.90;;;9.80;99.90;;;;;;5052376;28;20176;-42
2021/07/12 05:27:21;;;;;;;1999.90;999.90;;;9.90;99.90;;;;;;5052055;28;20271;-46
2021/07/12 05:29:48;;;;;;;1999.90;999.90;;;9.90;99.90;;;;;;5052129;28;20263;-43
2021/07/12 05:32:15;;;;;;;1999.90;999.90;;;10.00;99.90;;;;;;5052170;28;20245;-42
2021/07/12 05:34:42;;;;;;;1999.90;999.90;;;10.00;99.90;;;;;;5052294;28;20260;-41
2021/07/12 05:37:09;;;;;;;1999.90;999.90;;;10.10;99.90;;;;;;5051961;28;20158;-41
2021/07/12 05:39:35;;;;;;;1999.90;999.90;;;10.10;99.90;;;;;;5052106;28;20165;-41
2021/07/12 05:42:03;;;;;;;1999.90;999.90;;;10.10;99.90;;;;;;5051964;28;20174;-42
2021/07/12 05:44:29;;;;;;;1999.90;999.90;;;10.20;99.90;;;;;;5052143;28;20197;-42
2021/07/12 05:46:56;;;;;;;1999.90;999.90;;;10.20;99.90;;;;;;5052028;28;20192;-42
2021/07/12 05:49:23;;;;;;;1999.90;999.90;;;10.20;99.90;;;;;;5051972;28;20617;-44
2021/07/12 05:51:50;;;;;;;1999.90;999.90;;;10.30;99.90;;;;;;5051842;28;20165;-44
2021/07/12 05:54:17;;;;;;;1999.90;999.90;;;10.30;99.90;;;;;;5052096;28;20169;-44
2021/07/12 05:56:44;;;;;;;1999.90;999.90;;;10.30;99.90;;;;;;5052017;28;20299;-43
2021/07/12 05:59:10;;;;;;;1999.90;999.90;;;10.30;99.90;;;;;;5053342;28;20169;-41
2021/07/12 06:01:37;;;;;;;1999.90;999.90;;;10.20;99.90;;;;;;5055517;28;20259;-42
2021/07/12 06:04:04;;;;;;;1999.90;999.90;;;10.30;99.90;;;;;;5055661;28;20191;-41
2021/07/12 06:06:31;;;;;;;1999.90;999.90;;;10.30;99.90;;;;;;5055546;28;20261;-41
2021/07/12 06:08:58;;;;;;;1999.90;999.90;;;10.30;99.90;;;;;;5055198;28;20197;-45
2021/07/12 06:11:24;;;;;;;1999.90;999.90;;;10.40;99.90;;;;;;5055156;28;20193;-58
2021/07/12 06:13:52;;;;;;;1999.90;999.90;;;10.30;99.90;;;;;;5055085;28;20512;-48
2021/07/12 06:16:19;;;;;;;1999.90;999.90;;;10.20;99.90;;;;;;5055116;28;20606;-60
2021/07/12 06:18:45;;;;;;;1999.90;999.90;;;10.10;99.90;;;;;;5053412;28;20188;-46
2021/07/12 06:21:12;;;;;;;1999.90;999.90;;;9.90;99.90;;;;;;5063745;28;20798;-59
2021/07/12 06:23:39;;;;;;;1999.90;999.90;;;9.80;99.90;;;;;;5073910;28;20191;-50
2021/07/12 06:26:05;;;;;;;1999.90;999.90;;;9.70;99.90;;;;;;5071633;28;20172;-61
2021/07/12 06:28:32;;;;;;;1999.90;999.90;;;9.70;99.90;;;;;;5073560;28;20200;-57
2021/07/12 06:30:59;;;;;;;1999.90;999.90;;;9.70;99.90;;;;;;5073666;28;20496;-44
2021/07/12 06:33:28;;;;;;;1999.90;999.90;;;9.80;99.90;;;;;;5073579;28;20565;-44
2021/07/12 06:35:56;;;;;;;1999.90;999.90;;;9.80;99.90;;;;;;5073220;28;20185;-45
2021/07/12 06:38:23;;;;;;;1999.90;999.90;;;9.90;99.90;;;;;;5073471;28;20172;-45
2021/07/12 06:40:50;;;;;;;1999.90;999.90;;;10.00;99.90;;;;;;5073402;28;20690;-43
2021/07/12 06:43:16;;;;;;;1999.90;999.90;;;10.20;99.90;;;;;;5073045;28;20200;-51
2021/07/12 06:45:46;;;;;;;1999.90;999.90;;;10.40;99.90;;;;;;5071649;28;20164;-54
2021/07/12 06:48:13;;;;;;;1999.90;999.90;;;10.20;99.90;;;;;;5073120;28;20227;-50
2021/07/12 06:50:40;;;;;;;1999.90;999.90;;;10.10;99.90;;;;;;5073237;28;20199;-48
2021/07/12 06:53:07;;;;;;;1999.90;999.90;;;10.10;99.90;;;;;;5073297;28;20226;-47
2021/07/12 06:55:34;;;;;;;1999.90;999.90;;;10.10;99.90;;;;;;5073395;28;20168;-47
2021/07/12 06:58:04;;;;;;;1999.90;999.90;;;10.20;99.90;;;;;;5072604;28;20196;-53
2021/07/12 07:00:33;;;;;;;1999.90;999.90;;;10.30;99.90;;;;;;5073430;28;20219;-53
2021/07/12 07:03:01;;;;;;;1999.90;999.90;;;10.40;99.90;;;;;;5072701;28;20627;-50
2021/07/12 07:05:28;;;;;;;1999.90;999.90;;;10.30;99.90;;;;;;5073185;28;20237;-51
2021/07/12 07:07:55;;;;;;;1999.90;999.90;;;10.30;99.90;;;;;;5072969;28;20215;-54
2021/07/12 07:10:22;;;;;;;1999.90;999.90;;;10.30;99.90;;;;;;5072618;28;20180;-48
2021/07/12 07:12:49;;;;;;;1999.90;999.90;;;10.30;99.90;;;;;;5072695;28;20417;-47
2021/07/12 07:15:17;;;;;;;1999.90;999.90;;;10.40;99.90;;;;;;5072720;28;20968;-49
2021/07/12 07:17:44;;;;;;;1999.90;999.90;;;10.40;99.90;;;;;;5072542;28;20196;-46
2021/07/12 07:20:11;;;;;;;1999.90;999.90;;;10.40;99.90;;;;;;5072427;28;20186;-44
2021/07/12 07:22:38;;;;;;;1999.90;999.90;;;10.50;99.90;;;;;;5072571;28;20168;-44
2021/07/12 07:25:06;;;;;;;1999.90;999.90;;;10.50;99.90;;;;;;5072580;28;20177;-53
2021/07/12 07:27:33;;;;;;;1999.90;999.90;;;10.60;99.90;;;;;;5072227;28;20188;-48
2021/07/12 07:30:00;;;;;;;1999.90;999.90;;;10.50;99.90;;;;;;5072857;28;20164;-51
2021/07/12 07:32:26;;;;;;;1999.90;999.90;;;10.50;99.90;;;;;;5071993;28;20956;-60
2021/07/12 07:34:53;;;;;;;1999.90;999.90;;;10.80;99.90;;;;;;5071585;28;20624;-52
2021/07/12 07:37:20;;;;;;;1999.90;999.90;;;12.00;99.90;;;;;;5072404;28;20504;-57
2021/07/12 07:39:47;;;;;;;1999.90;999.90;;;11.80;99.90;;;;;;5072212;28;20503;-49
2021/07/12 07:42:13;;;;;;;1999.90;999.90;;;11.40;99.90;;;;;;5072419;28;20161;-48
2021/07/12 07:44:40;;;;;;;1999.90;999.90;;;11.10;99.90;;;;;;5072024;28;20168;-47
2021/07/12 07:47:07;;;;;;;1999.90;999.90;;;10.80;99.90;;;;;;5072033;28;20188;-48
2021/07/12 07:49:34;;;;;;;1999.90;999.90;;;10.70;99.90;;;;;;5072317;28;20176;-52
2021/07/12 07:52:01;;;;;;;1999.90;999.90;;;10.60;99.90;;;;;;5072236;28;20165;-51
2021/07/12 07:54:28;;;;;;;1999.90;999.90;;;10.60;99.90;;;;;;5072161;28;20172;-49
2021/07/12 07:56:55;;;;;;;1999.90;999.90;;;10.60;99.90;;;;;;5071646;28;20199;-50
2021/07/12 07:59:21;;;;;;;1999.90;999.90;;;10.60;99.90;;;;;;5071864;28;20200;-48
2021/07/12 08:01:48;;;;;;;1999.90;999.90;;;10.70;99.90;;;;;;5072111;28;20163;-58
2021/07/12 08:04:15;;;;;;;1999.90;999.90;;;10.70;99.90;;;;;;5071729;28;20200;-51
2021/07/12 08:06:42;;;;;;;1999.90;999.90;;;10.60;99.90;;;;;;5071668;28;20222;-40
2021/07/12 08:09:09;;;;;;;1999.90;999.90;;;10.80;99.90;;;;;;5071883;28;20169;-42
2021/07/12 08:11:36;;;;;;;1999.90;999.90;;;10.50;99.90;;;;;;5071318;28;20168;-40
2021/07/12 08:14:03;;;;;;;1999.90;999.90;;;11.30;99.90;;;;;;5071530;28;20245;-40
2021/07/12 08:16:30;;;;;;;1999.90;999.90;;;10.90;99.90;;;;;;5072042;28;20160;-39
2021/07/12 08:18:57;;;;;;;1999.90;999.90;;;10.70;99.90;;;;;;5071382;28;20278;-40
2021/07/12 08:21:24;;;;;;;1999.90;999.90;;;10.60;99.90;;;;;;5070479;28;20165;-40
2021/07/12 08:23:51;;;;;;;1999.90;999.90;;;10.60;99.90;;;;;;5071760;28;20164;-40
2021/07/12 08:26:18;;;;;;;1999.90;999.90;;;10.60;99.90;;;;;;5071296;28;20168;-43
2021/07/12 08:28:44;;;;;;;1999.90;999.90;;;10.60;99.90;;;;;;5071665;28;20286;-44
2021/07/12 08:31:12;;;;;;;1999.90;999.90;;;10.60;99.90;;;;;;5071419;28;20171;-43
2021/07/12 08:33:40;;;;;;;1999.90;999.90;;;10.50;99.90;;;;;;5071081;28;20172;-42
2021/07/12 08:36:07;;;;;;;1999.90;999.90;;;10.50;99.90;;;;;;5071173;28;20179;-40
2021/07/12 08:38:34;;;;;;;1999.90;999.90;;;10.40;99.90;;;;;;5071346;28;20169;-44
2021/07/12 08:41:01;;;;;;;1999.90;999.90;;;10.50;99.90;;;;;;5071262;28;20176;-47
2021/07/12 08:43:28;;;;;;;1999.90;999.90;;;10.50;99.90;;;;;;5071375;28;20157;-45
2021/07/12 08:45:55;;;;;;;1999.90;999.90;;;10.40;99.90;;;;;;5070883;28;20173;-41
2021/07/12 08:48:22;;;;;;;1999.90;999.90;;;10.30;99.90;;;;;;5070908;28;20212;-47
2021/07/12 08:50:48;;;;;;;1999.90;999.90;;;10.30;99.90;;;;;;5071519;28;20168;-41
2021/07/12 08:53:15;;;;;;;1999.90;999.90;;;10.30;99.90;;;;;;5070836;28;20256;-42
2021/07/12 08:55:46;;;;;;;1999.90;999.90;;;10.30;99.90;;;;;;5070978;28;20179;-49
2021/07/12 08:58:24;;;;;;;1999.90;999.90;;;10.30;99.90;;;;;;5071357;28;20168;-42
2021/07/12 09:00:53;;;;;;;1999.90;999.90;;;10.40;99.90;;;;;;5052914;28;20164;-40
2021/07/12 09:03:24;;;;;;;1999.90;999.90;;;10.40;99.90;;;;;;5071110;28;20246;-40
2021/07/12 09:06:25;;;;;;;1999.90;999.90;;;10.30;99.90;;;;;;5071101;28;20701;-40
2021/07/12 09:08:58;;;;;;;1999.90;999.90;;;10.40;99.90;;;;;;5070672;28;20208;-52
2021/07/12 09:11:34;;;;;;;1999.90;999.90;;;10.40;99.90;;;;;;5071298;28;20152;-42
2021/07/12 09:14:12;;;;;;;1999.90;999.90;;;10.50;99.90;;;;;;5070885;28;20168;-39
2021/07/12 09:16:46;;;;;;;1999.90;999.90;;;10.60;99.90;;;;;;5071150;28;20172;-40
2021/07/12 09:19:20;;;;;;;1999.90;999.90;;;10.70;99.90;;;;;;5070701;28;20160;-39
2021/07/12 09:21:53;;;;;;;1999.90;999.90;;;10.70;99.90;;;;;;5070342;28;20179;-40
2021/07/12 09:24:33;;;;;;;1999.90;999.90;;;10.70;99.90;;;;;;5070789;28;20239;-40
2021/07/12 09:27:13;;;;;;;1999.90;999.90;;;10.60;99.90;;;;;;5070688;28;20173;-40
2021/07/12 09:29:48;;;;;;;1999.90;999.90;;;10.30;99.90;;;;;;5070776;28;20157;-42
2021/07/12 09:32:18;;;;;;;1999.90;999.90;;;10.00;99.90;;;;;;5071125;28;20255;-42
2021/07/12 09:34:46;;;;;;;1999.90;999.90;;;9.80;99.90;;;;;;5074384;28;20176;-39
2021/07/12 09:37:17;;;;;;;1999.90;999.90;;;9.60;99.90;;;;;;5074520;28;20169;-46
2021/07/12 09:39:46;;;;;;;1999.90;999.90;;;9.60;99.90;;;;;;5074789;28;20171;-47
2021/07/12 09:42:20;;;;;;;1999.90;999.90;;;9.50;99.90;;;;;;5074502;28;20172;-37
2021/07/12 09:44:52;;;;;;;1999.90;999.90;;;9.60;99.90;;;;;;5074351;28;20179;-45
2021/07/12 09:47:25;;;;;;;1999.90;999.90;;;9.70;99.90;;;;;;5074671;28;20662;-37
2021/07/12 09:49:59;;;;;;;1999.90;999.90;;;10.00;99.90;;;;;;5073810;28;20179;-37
2021/07/12 09:52:26;;;;;;;1999.90;999.90;;;10.00;99.90;;;;;;5074732;28;20172;-37
2021/07/12 09:54:53;;;;;;;1999.90;999.90;;;9.90;99.90;;;;;;5074521;28;20167;-37
2021/07/12 09:57:22;;;;;;;1999.90;999.90;;;9.80;99.90;;;;;;5074131;28;20222;-37
2021/07/12 10:00:06;;;;;;;1999.90;999.90;;;9.70;99.90;;;;;;5074517;28;20160;-38
2021/07/12 10:02:35;;;;;;;1999.90;999.90;;;9.60;99.90;;;;;;5074538;28;20176;-38
2021/07/12 10:05:09;;;;;;;1999.90;999.90;;;9.70;99.90;;;;;;5074386;28;20179;-38
2021/07/12 10:07:36;;;;;;;1999.90;999.90;;;9.60;99.90;;;;;;5074648;28;20196;-49
2021/07/12 10:10:13;;;;;;;1999.90;999.90;;;9.50;99.90;;;;;;5074207;28;20556;-40
2021/07/12 10:12:45;;;;;;;1999.90;999.90;;;9.50;99.90;;;;;;5074127;28;20223;-45
2021/07/12 10:15:17;;;;;;;1999.90;999.90;;;9.60;99.90;;;;;;5074500;28;20157;-41
2021/07/12 10:17:45;;;;;;;1999.90;999.90;;;9.80;99.90;;;;;;5074171;28;20245;-39
2021/07/12 10:20:14;;;;;;;1999.90;999.90;;;9.90;99.90;;;;;;5074227;28;20176;-44
2021/07/12 10:22:42;;;;;;;1999.90;999.90;;;9.80;99.90;;;;;;5074044;28;20636;-52
2021/07/12 10:25:20;;;;;;;1999.90;999.90;;;10.10;99.90;;;;;;5073785;28;20261;-42
2021/07/12 10:27:49;;;;;;;1999.90;999.90;;;10.20;99.90;;;;;;5073762;28;20219;-48
2021/07/12 10:30:29;;;;;;;1999.90;999.90;;;10.10;99.90;;;;;;5073809;28;20168;-41
2021/07/12 10:33:00;;;;;;;1999.90;999.90;;;10.20;99.90;;;;;;5073827;28;20159;-43
2021/07/12 10:35:52;;;;;;;1999.90;999.90;;;10.30;99.90;;;;;;5073781;28;20252;-44
2021/07/12 10:38:38;;;;;;;1999.90;999.90;;;10.60;99.90;;;;;;5073703;28;20202;-40
2021/07/12 10:41:28;;;;;;;1999.90;999.90;;;10.40;99.90;;;;;;5055962;28;20165;-42
2021/07/12 10:44:06;;;;;;;1999.90;999.90;;;10.30;99.90;;;;;;5073641;28;20161;-47
2021/07/12 10:46:35;;;;;;;1999.90;999.90;;;10.20;99.90;;;;;;5073602;28;20157;-43
2021/07/12 10:49:04;;;;;;;1999.90;999.90;;;10.20;99.90;;;;;;5073845;28;20218;-51
2021/07/12 10:51:37;;;;;;;1999.90;999.90;;;10.00;99.90;;;;;;5073186;28;20176;-44
2021/07/12 10:54:11;;;;;;;1999.90;999.90;;;9.90;99.90;;;;;;5073436;28;20168;-55
2021/07/12 10:56:53;;;;;;;1999.90;999.90;;;9.80;99.90;;;;;;5073358;28;20165;-41
2021/07/12 10:59:27;;;;;;;1999.90;999.90;;;9.80;99.90;;;;;;5073235;28;20161;-41
2021/07/12 11:01:54;;;;;;;1999.90;999.90;;;9.70;99.90;;;;;;5073096;28;20153;-45
2021/07/12 11:04:34;;;;;;;1999.90;999.90;;;9.70;99.90;;;;;;5073502;28;20164;-40
2021/07/12 11:07:07;;;;;;;1999.90;999.90;;;9.60;99.90;;;;;;5072824;28;20152;-41
2021/07/12 11:10:03;;;;;;;1999.90;999.90;;;9.50;99.90;;;;;;5073609;28;20253;-43
2021/07/12 11:12:30;;;;;;;1999.90;999.90;;;9.50;99.90;;;;;;5051998;28;20208;-45
2021/07/12 11:15:24;;;;;;;1999.90;999.90;;;9.40;99.90;;;;;;5073116;28;20627;-44
2021/07/12 11:18:06;;;;;;;1999.90;999.90;;;9.50;99.90;;;;;;5073093;28;20632;-40
2021/07/12 11:20:45;;;;;;;1999.90;999.90;;;9.40;99.90;;;;;;5073253;28;20173;-43
2021/07/12 11:23:35;;;;;;;1999.90;999.90;;;9.50;99.90;;;;;;5073163;28;20181;-42
2021/07/12 11:26:02;;;;;;;1999.90;999.90;;;9.50;99.90;;;;;;5072747;28;20631;-42
2021/07/12 11:28:43;;;;;;;1999.90;999.90;;;9.50;99.90;;;;;;5072553;28;20208;-42
2021/07/12 11:31:47;;;;;;;1999.90;999.90;;;9.40;99.90;;;;;;5072726;28;20238;-41
2021/07/12 11:34:20;;;;;;;1999.90;999.90;;;9.40;99.90;;;;;;5072614;28;20167;-47
2021/07/12 11:36:51;;;;;;;1999.90;999.90;;;9.40;99.90;;;;;;5072875;28;20164;-47
2021/07/12 11:39:20;;;;;;;1999.90;999.90;;;9.40;99.90;;;;;;5072237;28;20163;-46
2021/07/12 11:41:47;;;;;;;1999.90;999.90;;;9.40;99.90;;;;;;5072324;28;20564;-42
2021/07/12 11:44:16;;;;;;;1999.90;999.90;;;9.40;99.90;;;;;;5073052;28;20172;-43
2021/07/12 11:46:44;;;;;;;1999.90;999.90;;;9.40;99.90;;;;;;5072028;28;20251;-44
2021/07/12 11:49:12;;;;;;;1999.90;999.90;;;9.40;99.90;;;;;;5071967;28;20250;-45
2021/07/12 11:51:40;;;;;;;1999.90;999.90;;;9.40;99.90;;;;;;5072248;28;20630;-43
2021/07/12 11:54:24;;;;;;;1999.90;999.90;;;9.40;99.90;;;;;;5072226;28;20503;-45
2021/07/12 11:57:10;;;;;;;1999.90;999.90;;;9.40;99.90;;;;;;5071058;28;20172;-52
2021/07/12 11:59:39;;;;;;;1999.90;999.90;;;9.40;99.90;;;;;;5072333;28;20229;-51
2021/07/12 12:02:08;;;;;;;1999.90;999.90;;;9.40;99.90;;;;;;5071936;28;20221;-47
2021/07/12 12:05:02;;;;;;;1999.90;999.90;;;9.40;99.90;;;;;;5072448;28;20176;-54
2021/07/12 12:07:36;;;;;;;1999.90;999.90;;;9.40;99.90;;;;;;5067780;28;20211;-49
2021/07/12 12:10:15;;;;;;;1999.90;999.90;;;9.30;99.90;;;;;;5071650;28;20184;-51
2021/07/12 12:12:48;;;;;;;1999.90;999.90;;;9.30;99.90;;;;;;5071704;28;20272;-50
2021/07/12 12:15:26;;;;;;;1999.90;999.90;;;9.30;99.90;;;;;;5071895;28;20180;-49
2021/07/12 12:18:03;;;;;;;1999.90;999.90;;;9.30;99.90;;;;;;5054009;28;20178;-46
2021/07/12 12:20:41;;;;;;;1999.90;999.90;;;9.30;99.90;;;;;;5071703;28;20619;-58
2021/07/12 12:23:21;;;;;;;1999.90;999.90;;;9.30;99.90;;;;;;5071597;28;20161;-44
2021/07/12 12:25:48;;;;;;;1999.90;999.90;;;9.50;99.90;;;;;;5072094;28;20538;-44